sensor_id;sensor_type;location;lat;lon;timestamp;P1;durP1;ratioP1;P2;durP2;ratioP2
16393;SDS011;8306;51.128;4.476;2024-03-02T00:00:50;1.20;;;0.50;;
16393;SDS011;8306;51.128;4.476;2024-03-02T00:03:17;0.40;;;0.40;;
16393;SDS011;8306;51.128;4.476;2024-03-02T00:05:43;0.50;;;0.50;;
16393;SDS011;8306;51.128;4.476;2024-03-02T00:08:09;0.53;;;0.53;;
16393;SDS011;8306;51.128;4.476;2024-03-02T00:10:37;0.53;;;0.53;;
16393;SDS011;8306;51.128;4.476;2024-03-02T00:13:11;0.60;;;0.60;;
16393;SDS011;8306;51.128;4.476;2024-03-02T00:18:07;1.40;;;0.40;;
16393;SDS011;8306;51.128;4.476;2024-03-02T00:20:33;0.63;;;0.50;;
16393;SDS011;8306;51.128;4.476;2024-03-02T00:23:06;0.60;;;0.60;;
16393;SDS011;8306;51.128;4.476;2024-03-02T00:25:44;0.50;;;0.43;;
16393;SDS011;8306;51.128;4.476;2024-03-02T00:28:21;3.13;;;0.50;;
16393;SDS011;8306;51.128;4.476;2024-03-02T00:33:06;1.10;;;1.10;;
16393;SDS011;8306;51.128;4.476;2024-03-02T00:35:33;0.80;;;0.80;;
16393;SDS011;8306;51.128;4.476;2024-03-02T00:38:03;1.50;;;1.40;;
16393;SDS011;8306;51.128;4.476;2024-03-02T00:40:27;1.20;;;0.70;;
16393;SDS011;8306;51.128;4.476;2024-03-02T00:42:52;0.80;;;0.70;;
16393;SDS011;8306;51.128;4.476;2024-03-02T00:45:18;1.00;;;0.50;;
16393;SDS011;8306;51.128;4.476;2024-03-02T00:47:45;1.13;;;0.60;;
16393;SDS011;8306;51.128;4.476;2024-03-02T00:50:12;0.87;;;0.47;;
16393;SDS011;8306;51.128;4.476;2024-03-02T00:52:38;0.70;;;0.70;;
16393;SDS011;8306;51.128;4.476;2024-03-02T00:55:04;0.53;;;0.40;;
16393;SDS011;8306;51.128;4.476;2024-03-02T00:57:31;1.23;;;0.60;;
16393;SDS011;8306;51.128;4.476;2024-03-02T00:59:57;1.40;;;1.03;;
16393;SDS011;8306;51.128;4.476;2024-03-02T01:02:24;1.00;;;0.70;;
16393;SDS011;8306;51.128;4.476;2024-03-02T01:04:50;0.80;;;0.70;;
16393;SDS011;8306;51.128;4.476;2024-03-02T01:07:17;0.67;;;0.60;;
16393;SDS011;8306;51.128;4.476;2024-03-02T01:09:43;1.37;;;0.70;;
16393;SDS011;8306;51.128;4.476;2024-03-02T01:12:10;0.80;;;0.60;;
16393;SDS011;8306;51.128;4.476;2024-03-02T01:14:36;0.50;;;0.50;;
16393;SDS011;8306;51.128;4.476;2024-03-02T01:17:03;1.33;;;0.60;;
16393;SDS011;8306;51.128;4.476;2024-03-02T01:19:29;1.00;;;0.47;;
16393;SDS011;8306;51.128;4.476;2024-03-02T01:21:56;0.93;;;0.60;;
16393;SDS011;8306;51.128;4.476;2024-03-02T01:24:22;0.80;;;0.40;;
16393;SDS011;8306;51.128;4.476;2024-03-02T01:26:49;1.50;;;0.40;;
16393;SDS011;8306;51.128;4.476;2024-03-02T01:29:15;0.90;;;0.40;;
16393;SDS011;8306;51.128;4.476;2024-03-02T01:31:42;0.23;;;0.20;;
16393;SDS011;8306;51.128;4.476;2024-03-02T01:34:08;1.30;;;0.30;;
16393;SDS011;8306;51.128;4.476;2024-03-02T01:36:35;0.27;;;0.20;;
16393;SDS011;8306;51.128;4.476;2024-03-02T01:39:01;0.20;;;0.20;;
16393;SDS011;8306;51.128;4.476;2024-03-02T01:41:28;0.30;;;0.20;;
16393;SDS011;8306;51.128;4.476;2024-03-02T01:43:54;0.63;;;0.20;;
16393;SDS011;8306;51.128;4.476;2024-03-02T01:46:20;0.20;;;0.10;;
16393;SDS011;8306;51.128;4.476;2024-03-02T01:48:47;0.40;;;0.30;;
16393;SDS011;8306;51.128;4.476;2024-03-02T01:51:13;0.40;;;0.40;;
16393;SDS011;8306;51.128;4.476;2024-03-02T01:53:40;0.30;;;0.10;;
16393;SDS011;8306;51.128;4.476;2024-03-02T01:56:06;0.30;;;0.20;;
16393;SDS011;8306;51.128;4.476;2024-03-02T01:58:33;0.40;;;0.10;;
16393;SDS011;8306;51.128;4.476;2024-03-02T02:00:59;0.30;;;0.30;;
16393;SDS011;8306;51.128;4.476;2024-03-02T02:03:26;0.83;;;0.30;;
16393;SDS011;8306;51.128;4.476;2024-03-02T02:05:52;1.33;;;0.30;;
16393;SDS011;8306;51.128;4.476;2024-03-02T02:08:19;1.60;;;0.20;;
16393;SDS011;8306;51.128;4.476;2024-03-02T02:10:45;0.17;;;0.17;;
16393;SDS011;8306;51.128;4.476;2024-03-02T02:13:12;0.50;;;0.20;;
16393;SDS011;8306;51.128;4.476;2024-03-02T02:15:38;0.83;;;0.30;;
16393;SDS011;8306;51.128;4.476;2024-03-02T02:18:05;1.13;;;0.30;;
16393;SDS011;8306;51.128;4.476;2024-03-02T02:20:31;0.93;;;0.40;;
16393;SDS011;8306;51.128;4.476;2024-03-02T02:23:01;1.30;;;0.50;;
16393;SDS011;8306;51.128;4.476;2024-03-02T02:25:27;1.20;;;0.40;;
16393;SDS011;8306;51.128;4.476;2024-03-02T02:27:53;1.13;;;0.50;;
16393;SDS011;8306;51.128;4.476;2024-03-02T02:30:21;0.47;;;0.37;;
16393;SDS011;8306;51.128;4.476;2024-03-02T02:32:49;1.57;;;0.60;;
16393;SDS011;8306;51.128;4.476;2024-03-02T02:35:15;1.03;;;0.40;;
16393;SDS011;8306;51.128;4.476;2024-03-02T02:37:42;0.50;;;0.30;;
16393;SDS011;8306;51.128;4.476;2024-03-02T02:40:08;2.43;;;0.40;;
16393;SDS011;8306;51.128;4.476;2024-03-02T02:42:35;1.03;;;0.30;;
16393;SDS011;8306;51.128;4.476;2024-03-02T02:45:01;0.80;;;0.33;;
16393;SDS011;8306;51.128;4.476;2024-03-02T02:47:28;1.13;;;0.30;;
16393;SDS011;8306;51.128;4.476;2024-03-02T02:49:54;1.17;;;0.47;;
16393;SDS011;8306;51.128;4.476;2024-03-02T02:52:21;1.47;;;0.50;;
16393;SDS011;8306;51.128;4.476;2024-03-02T02:54:47;0.93;;;0.50;;
16393;SDS011;8306;51.128;4.476;2024-03-02T02:57:14;0.87;;;0.40;;
16393;SDS011;8306;51.128;4.476;2024-03-02T02:59:40;0.97;;;0.60;;
16393;SDS011;8306;51.128;4.476;2024-03-02T03:02:07;0.50;;;0.50;;
16393;SDS011;8306;51.128;4.476;2024-03-02T03:04:33;1.43;;;0.73;;
16393;SDS011;8306;51.128;4.476;2024-03-02T03:06:59;0.90;;;0.40;;
16393;SDS011;8306;51.128;4.476;2024-03-02T03:09:26;1.23;;;0.67;;
16393;SDS011;8306;51.128;4.476;2024-03-02T03:11:52;1.20;;;0.63;;
16393;SDS011;8306;51.128;4.476;2024-03-02T03:14:19;1.13;;;0.73;;
16393;SDS011;8306;51.128;4.476;2024-03-02T03:16:46;1.47;;;0.30;;
16393;SDS011;8306;51.128;4.476;2024-03-02T03:19:12;1.27;;;0.40;;
16393;SDS011;8306;51.128;4.476;2024-03-02T03:21:38;0.43;;;0.30;;
16393;SDS011;8306;51.128;4.476;2024-03-02T03:24:05;0.63;;;0.30;;
16393;SDS011;8306;51.128;4.476;2024-03-02T03:26:31;0.63;;;0.30;;
16393;SDS011;8306;51.128;4.476;2024-03-02T03:28:58;1.00;;;0.43;;
16393;SDS011;8306;51.128;4.476;2024-03-02T03:31:24;2.50;;;0.40;;
16393;SDS011;8306;51.128;4.476;2024-03-02T03:33:51;0.90;;;0.40;;
16393;SDS011;8306;51.128;4.476;2024-03-02T03:36:17;1.57;;;0.60;;
16393;SDS011;8306;51.128;4.476;2024-03-02T03:38:44;0.90;;;0.40;;
16393;SDS011;8306;51.128;4.476;2024-03-02T03:41:10;1.33;;;0.57;;
16393;SDS011;8306;51.128;4.476;2024-03-02T03:43:37;1.63;;;0.50;;
16393;SDS011;8306;51.128;4.476;2024-03-02T03:46:03;1.10;;;0.60;;
16393;SDS011;8306;51.128;4.476;2024-03-02T03:48:30;1.27;;;0.60;;
16393;SDS011;8306;51.128;4.476;2024-03-02T03:50:56;2.20;;;0.70;;
16393;SDS011;8306;51.128;4.476;2024-03-02T03:53:23;2.10;;;0.70;;
16393;SDS011;8306;51.128;4.476;2024-03-02T03:55:49;2.87;;;0.57;;
16393;SDS011;8306;51.128;4.476;2024-03-02T03:58:16;1.90;;;0.77;;
16393;SDS011;8306;51.128;4.476;2024-03-02T04:00:42;2.67;;;0.70;;
16393;SDS011;8306;51.128;4.476;2024-03-02T04:03:09;1.83;;;0.60;;
16393;SDS011;8306;51.128;4.476;2024-03-02T04:05:35;0.93;;;0.60;;
16393;SDS011;8306;51.128;4.476;2024-03-02T04:08:02;1.33;;;0.80;;
16393;SDS011;8306;51.128;4.476;2024-03-02T04:10:28;2.50;;;0.90;;
16393;SDS011;8306;51.128;4.476;2024-03-02T04:12:55;1.23;;;0.60;;
16393;SDS011;8306;51.128;4.476;2024-03-02T04:15:21;1.10;;;0.50;;
16393;SDS011;8306;51.128;4.476;2024-03-02T04:17:47;1.20;;;0.50;;
16393;SDS011;8306;51.128;4.476;2024-03-02T04:20:14;1.83;;;0.50;;
16393;SDS011;8306;51.128;4.476;2024-03-02T04:22:40;1.50;;;0.60;;
16393;SDS011;8306;51.128;4.476;2024-03-02T04:25:07;1.13;;;0.50;;
16393;SDS011;8306;51.128;4.476;2024-03-02T04:27:33;3.23;;;0.50;;
16393;SDS011;8306;51.128;4.476;2024-03-02T04:30:00;1.00;;;0.70;;
16393;SDS011;8306;51.128;4.476;2024-03-02T04:32:26;1.53;;;0.50;;
16393;SDS011;8306;51.128;4.476;2024-03-02T04:34:53;0.70;;;0.30;;
16393;SDS011;8306;51.128;4.476;2024-03-02T04:37:19;1.37;;;0.60;;
16393;SDS011;8306;51.128;4.476;2024-03-02T04:39:46;0.93;;;0.40;;
16393;SDS011;8306;51.128;4.476;2024-03-02T04:42:12;1.53;;;0.67;;
16393;SDS011;8306;51.128;4.476;2024-03-02T04:44:39;0.40;;;0.23;;
16393;SDS011;8306;51.128;4.476;2024-03-02T04:47:05;2.20;;;0.70;;
16393;SDS011;8306;51.128;4.476;2024-03-02T04:49:32;1.77;;;0.40;;
16393;SDS011;8306;51.128;4.476;2024-03-02T04:51:58;1.43;;;0.50;;
16393;SDS011;8306;51.128;4.476;2024-03-02T04:54:25;1.33;;;0.40;;
16393;SDS011;8306;51.128;4.476;2024-03-02T04:56:51;1.23;;;0.53;;
16393;SDS011;8306;51.128;4.476;2024-03-02T04:59:18;1.10;;;0.50;;
16393;SDS011;8306;51.128;4.476;2024-03-02T05:01:44;1.30;;;0.40;;
16393;SDS011;8306;51.128;4.476;2024-03-02T05:04:11;2.80;;;0.70;;
16393;SDS011;8306;51.128;4.476;2024-03-02T05:06:38;1.03;;;0.60;;
16393;SDS011;8306;51.128;4.476;2024-03-02T05:09:04;2.73;;;0.53;;
16393;SDS011;8306;51.128;4.476;2024-03-02T05:11:30;1.80;;;0.70;;
16393;SDS011;8306;51.128;4.476;2024-03-02T05:14:06;0.67;;;0.33;;
16393;SDS011;8306;51.128;4.476;2024-03-02T05:16:35;3.30;;;0.70;;
16393;SDS011;8306;51.128;4.476;2024-03-02T05:19:01;1.10;;;0.37;;
16393;SDS011;8306;51.128;4.476;2024-03-02T05:21:27;2.47;;;0.80;;
16393;SDS011;8306;51.128;4.476;2024-03-02T05:23:54;0.90;;;0.40;;
16393;SDS011;8306;51.128;4.476;2024-03-02T05:26:20;1.60;;;0.60;;
16393;SDS011;8306;51.128;4.476;2024-03-02T05:28:47;1.63;;;0.53;;
16393;SDS011;8306;51.128;4.476;2024-03-02T05:31:16;2.40;;;0.60;;
16393;SDS011;8306;51.128;4.476;2024-03-02T05:33:43;2.40;;;0.70;;
16393;SDS011;8306;51.128;4.476;2024-03-02T05:36:09;2.10;;;0.60;;
16393;SDS011;8306;51.128;4.476;2024-03-02T05:38:36;2.00;;;0.67;;
16393;SDS011;8306;51.128;4.476;2024-03-02T05:41:02;1.10;;;0.50;;
16393;SDS011;8306;51.128;4.476;2024-03-02T05:43:29;2.43;;;0.67;;
16393;SDS011;8306;51.128;4.476;2024-03-02T05:45:55;2.57;;;0.57;;
16393;SDS011;8306;51.128;4.476;2024-03-02T05:48:22;1.77;;;0.60;;
16393;SDS011;8306;51.128;4.476;2024-03-02T05:50:48;1.73;;;0.50;;
16393;SDS011;8306;51.128;4.476;2024-03-02T05:53:15;3.10;;;0.50;;
16393;SDS011;8306;51.128;4.476;2024-03-02T05:55:41;1.73;;;0.60;;
16393;SDS011;8306;51.128;4.476;2024-03-02T05:58:08;2.77;;;0.73;;
16393;SDS011;8306;51.128;4.476;2024-03-02T06:00:37;2.00;;;0.60;;
16393;SDS011;8306;51.128;4.476;2024-03-02T06:03:04;1.53;;;0.57;;
16393;SDS011;8306;51.128;4.476;2024-03-02T06:05:30;2.37;;;0.90;;
16393;SDS011;8306;51.128;4.476;2024-03-02T06:07:56;1.63;;;0.50;;
16393;SDS011;8306;51.128;4.476;2024-03-02T06:10:23;1.50;;;0.60;;
16393;SDS011;8306;51.128;4.476;2024-03-02T06:12:49;2.07;;;0.50;;
16393;SDS011;8306;51.128;4.476;2024-03-02T06:15:16;1.83;;;0.60;;
16393;SDS011;8306;51.128;4.476;2024-03-02T06:17:42;2.50;;;0.90;;
16393;SDS011;8306;51.128;4.476;2024-03-02T06:20:09;4.10;;;0.60;;
16393;SDS011;8306;51.128;4.476;2024-03-02T06:22:36;1.60;;;0.50;;
16393;SDS011;8306;51.128;4.476;2024-03-02T06:25:02;1.87;;;0.53;;
16393;SDS011;8306;51.128;4.476;2024-03-02T06:27:28;2.50;;;0.50;;
16393;SDS011;8306;51.128;4.476;2024-03-02T06:29:55;1.60;;;0.60;;
16393;SDS011;8306;51.128;4.476;2024-03-02T06:32:21;0.97;;;0.50;;
16393;SDS011;8306;51.128;4.476;2024-03-02T06:34:48;1.20;;;0.70;;
16393;SDS011;8306;51.128;4.476;2024-03-02T06:37:14;2.13;;;0.83;;
16393;SDS011;8306;51.128;4.476;2024-03-02T06:39:41;1.40;;;0.70;;
16393;SDS011;8306;51.128;4.476;2024-03-02T06:42:07;2.30;;;0.90;;
16393;SDS011;8306;51.128;4.476;2024-03-02T06:44:34;3.23;;;1.10;;
16393;SDS011;8306;51.128;4.476;2024-03-02T06:47:00;3.33;;;1.20;;
16393;SDS011;8306;51.128;4.476;2024-03-02T06:49:27;3.00;;;1.10;;
16393;SDS011;8306;51.128;4.476;2024-03-02T06:51:53;1.77;;;1.00;;
16393;SDS011;8306;51.128;4.476;2024-03-02T06:54:20;2.93;;;1.30;;
16393;SDS011;8306;51.128;4.476;2024-03-02T06:56:46;3.97;;;1.53;;
16393;SDS011;8306;51.128;4.476;2024-03-02T06:59:13;2.07;;;1.30;;
16393;SDS011;8306;51.128;4.476;2024-03-02T07:01:39;2.73;;;1.13;;
16393;SDS011;8306;51.128;4.476;2024-03-02T07:04:06;1.60;;;0.93;;
16393;SDS011;8306;51.128;4.476;2024-03-02T07:06:32;3.20;;;1.20;;
16393;SDS011;8306;51.128;4.476;2024-03-02T07:08:59;2.37;;;1.00;;
16393;SDS011;8306;51.128;4.476;2024-03-02T07:11:25;1.83;;;0.90;;
16393;SDS011;8306;51.128;4.476;2024-03-02T07:13:52;2.40;;;0.63;;
16393;SDS011;8306;51.128;4.476;2024-03-02T07:16:18;3.90;;;0.90;;
16393;SDS011;8306;51.128;4.476;2024-03-02T07:18:47;2.57;;;0.80;;
16393;SDS011;8306;51.128;4.476;2024-03-02T07:21:14;2.17;;;0.70;;
16393;SDS011;8306;51.128;4.476;2024-03-02T07:23:40;2.10;;;0.60;;
16393;SDS011;8306;51.128;4.476;2024-03-02T07:26:07;1.70;;;0.60;;
16393;SDS011;8306;51.128;4.476;2024-03-02T07:28:33;1.00;;;0.77;;
16393;SDS011;8306;51.128;4.476;2024-03-02T07:31:03;1.87;;;0.73;;
16393;SDS011;8306;51.128;4.476;2024-03-02T07:33:29;2.40;;;1.00;;
16393;SDS011;8306;51.128;4.476;2024-03-02T07:35:55;2.43;;;1.03;;
16393;SDS011;8306;51.128;4.476;2024-03-02T07:38:22;1.30;;;0.70;;
16393;SDS011;8306;51.128;4.476;2024-03-02T07:40:49;1.83;;;1.00;;
16393;SDS011;8306;51.128;4.476;2024-03-02T07:43:18;2.77;;;0.90;;
16393;SDS011;8306;51.128;4.476;2024-03-02T07:45:44;2.77;;;1.00;;
16393;SDS011;8306;51.128;4.476;2024-03-02T07:48:11;1.17;;;0.70;;
16393;SDS011;8306;51.128;4.476;2024-03-02T07:50:37;2.87;;;1.10;;
16393;SDS011;8306;51.128;4.476;2024-03-02T07:53:04;2.90;;;0.90;;
16393;SDS011;8306;51.128;4.476;2024-03-02T07:55:30;3.07;;;1.20;;
16393;SDS011;8306;51.128;4.476;2024-03-02T07:57:57;2.80;;;0.83;;
16393;SDS011;8306;51.128;4.476;2024-03-02T08:00:23;2.17;;;0.90;;
16393;SDS011;8306;51.128;4.476;2024-03-02T08:02:50;2.97;;;1.07;;
16393;SDS011;8306;51.128;4.476;2024-03-02T08:05:19;3.07;;;0.90;;
16393;SDS011;8306;51.128;4.476;2024-03-02T08:07:46;2.97;;;0.90;;
16393;SDS011;8306;51.128;4.476;2024-03-02T08:10:12;1.97;;;0.80;;
16393;SDS011;8306;51.128;4.476;2024-03-02T08:12:38;1.83;;;0.90;;
16393;SDS011;8306;51.128;4.476;2024-03-02T08:15:05;2.67;;;0.90;;
16393;SDS011;8306;51.128;4.476;2024-03-02T08:17:31;2.47;;;1.00;;
16393;SDS011;8306;51.128;4.476;2024-03-02T08:19:58;2.50;;;1.00;;
16393;SDS011;8306;51.128;4.476;2024-03-02T08:22:24;2.27;;;1.13;;
16393;SDS011;8306;51.128;4.476;2024-03-02T08:24:51;2.30;;;0.83;;
16393;SDS011;8306;51.128;4.476;2024-03-02T08:27:17;2.93;;;1.30;;
16393;SDS011;8306;51.128;4.476;2024-03-02T08:29:44;2.83;;;1.10;;
16393;SDS011;8306;51.128;4.476;2024-03-02T08:32:10;2.30;;;0.93;;
16393;SDS011;8306;51.128;4.476;2024-03-02T08:34:37;2.87;;;1.20;;
16393;SDS011;8306;51.128;4.476;2024-03-02T08:37:03;1.83;;;0.90;;
16393;SDS011;8306;51.128;4.476;2024-03-02T08:39:30;2.27;;;1.00;;
16393;SDS011;8306;51.128;4.476;2024-03-02T08:41:56;2.27;;;0.83;;
16393;SDS011;8306;51.128;4.476;2024-03-02T08:44:23;3.33;;;1.30;;
16393;SDS011;8306;51.128;4.476;2024-03-02T08:46:49;3.10;;;0.93;;
16393;SDS011;8306;51.128;4.476;2024-03-02T08:49:16;2.57;;;1.00;;
16393;SDS011;8306;51.128;4.476;2024-03-02T08:51:42;3.40;;;1.00;;
16393;SDS011;8306;51.128;4.476;2024-03-02T08:54:09;3.50;;;1.10;;
16393;SDS011;8306;51.128;4.476;2024-03-02T08:56:35;4.80;;;1.07;;
16393;SDS011;8306;51.128;4.476;2024-03-02T08:59:02;3.80;;;1.03;;
16393;SDS011;8306;51.128;4.476;2024-03-02T09:01:28;2.83;;;1.00;;
16393;SDS011;8306;51.128;4.476;2024-03-02T09:03:55;4.10;;;1.33;;
16393;SDS011;8306;51.128;4.476;2024-03-02T09:06:21;4.07;;;1.20;;
16393;SDS011;8306;51.128;4.476;2024-03-02T09:08:48;4.70;;;1.40;;
16393;SDS011;8306;51.128;4.476;2024-03-02T09:11:14;3.13;;;1.37;;
16393;SDS011;8306;51.128;4.476;2024-03-02T09:13:40;5.43;;;1.20;;
16393;SDS011;8306;51.128;4.476;2024-03-02T09:16:07;2.97;;;1.27;;
16393;SDS011;8306;51.128;4.476;2024-03-02T09:18:33;3.40;;;1.10;;
16393;SDS011;8306;51.128;4.476;2024-03-02T09:21:00;2.03;;;1.00;;
16393;SDS011;8306;51.128;4.476;2024-03-02T09:23:26;3.73;;;1.27;;
16393;SDS011;8306;51.128;4.476;2024-03-02T09:25:53;2.20;;;1.03;;
16393;SDS011;8306;51.128;4.476;2024-03-02T09:28:19;2.33;;;1.00;;
16393;SDS011;8306;51.128;4.476;2024-03-02T09:30:46;4.10;;;1.20;;
16393;SDS011;8306;51.128;4.476;2024-03-02T09:33:12;3.37;;;1.10;;
16393;SDS011;8306;51.128;4.476;2024-03-02T09:35:39;3.03;;;1.23;;
16393;SDS011;8306;51.128;4.476;2024-03-02T09:38:05;2.37;;;1.00;;
16393;SDS011;8306;51.128;4.476;2024-03-02T09:40:32;3.23;;;1.20;;
16393;SDS011;8306;51.128;4.476;2024-03-02T09:42:58;3.13;;;1.20;;
16393;SDS011;8306;51.128;4.476;2024-03-02T09:45:25;1.87;;;0.90;;
16393;SDS011;8306;51.128;4.476;2024-03-02T09:47:51;2.80;;;1.23;;
16393;SDS011;8306;51.128;4.476;2024-03-02T09:50:18;3.00;;;0.83;;
16393;SDS011;8306;51.128;4.476;2024-03-02T09:52:46;2.80;;;1.20;;
16393;SDS011;8306;51.128;4.476;2024-03-02T09:55:11;4.13;;;0.90;;
16393;SDS011;8306;51.128;4.476;2024-03-02T09:57:37;3.37;;;1.17;;
16393;SDS011;8306;51.128;4.476;2024-03-02T10:00:04;1.77;;;0.90;;
16393;SDS011;8306;51.128;4.476;2024-03-02T10:02:30;2.87;;;1.17;;
16393;SDS011;8306;51.128;4.476;2024-03-02T10:04:57;3.50;;;1.10;;
16393;SDS011;8306;51.128;4.476;2024-03-02T10:07:23;2.90;;;1.30;;
16393;SDS011;8306;51.128;4.476;2024-03-02T10:09:50;4.40;;;1.20;;
16393;SDS011;8306;51.128;4.476;2024-03-02T10:12:16;2.87;;;1.07;;
16393;SDS011;8306;51.128;4.476;2024-03-02T10:14:43;4.40;;;1.20;;
16393;SDS011;8306;51.128;4.476;2024-03-02T10:17:10;3.43;;;1.20;;
16393;SDS011;8306;51.128;4.476;2024-03-02T10:19:36;3.43;;;0.90;;
16393;SDS011;8306;51.128;4.476;2024-03-02T10:22:03;3.63;;;1.20;;
16393;SDS011;8306;51.128;4.476;2024-03-02T10:24:44;4.27;;;0.90;;
16393;SDS011;8306;51.128;4.476;2024-03-02T10:27:32;2.77;;;1.03;;
16393;SDS011;8306;51.128;4.476;2024-03-02T10:29:45;2.47;;;1.10;;
16393;SDS011;8306;51.128;4.476;2024-03-02T10:32:09;3.30;;;1.17;;
16393;SDS011;8306;51.128;4.476;2024-03-02T10:34:36;4.23;;;1.10;;
16393;SDS011;8306;51.128;4.476;2024-03-02T10:37:02;3.13;;;1.10;;
16393;SDS011;8306;51.128;4.476;2024-03-02T10:39:29;3.10;;;1.27;;
16393;SDS011;8306;51.128;4.476;2024-03-02T10:41:55;3.20;;;1.07;;
16393;SDS011;8306;51.128;4.476;2024-03-02T10:44:22;2.50;;;0.83;;
16393;SDS011;8306;51.128;4.476;2024-03-02T10:46:49;3.10;;;1.10;;
16393;SDS011;8306;51.128;4.476;2024-03-02T10:49:15;4.03;;;1.20;;
16393;SDS011;8306;51.128;4.476;2024-03-02T10:51:41;3.20;;;1.00;;
16393;SDS011;8306;51.128;4.476;2024-03-02T10:54:08;3.10;;;1.13;;
16393;SDS011;8306;51.128;4.476;2024-03-02T10:56:37;3.40;;;1.10;;
16393;SDS011;8306;51.128;4.476;2024-03-02T10:59:06;2.40;;;1.40;;
16393;SDS011;8306;51.128;4.476;2024-03-02T11:01:46;2.70;;;0.90;;
16393;SDS011;8306;51.128;4.476;2024-03-02T11:04:11;2.17;;;0.90;;
16393;SDS011;8306;51.128;4.476;2024-03-02T11:06:38;3.23;;;1.10;;
16393;SDS011;8306;51.128;4.476;2024-03-02T11:09:05;2.77;;;1.00;;
16393;SDS011;8306;51.128;4.476;2024-03-02T11:11:32;2.13;;;0.90;;
16393;SDS011;8306;51.128;4.476;2024-03-02T11:13:57;2.97;;;1.20;;
16393;SDS011;8306;51.128;4.476;2024-03-02T11:16:30;1.40;;;0.70;;
16393;SDS011;8306;51.128;4.476;2024-03-02T11:18:53;1.87;;;1.00;;
16393;SDS011;8306;51.128;4.476;2024-03-02T11:21:20;2.63;;;1.10;;
16393;SDS011;8306;51.128;4.476;2024-03-02T11:23:46;3.17;;;0.93;;
16393;SDS011;8306;51.128;4.476;2024-03-02T11:26:22;3.37;;;1.20;;
16393;SDS011;8306;51.128;4.476;2024-03-02T11:28:48;3.87;;;1.20;;
16393;SDS011;8306;51.128;4.476;2024-03-02T11:31:14;4.87;;;0.87;;
16393;SDS011;8306;51.128;4.476;2024-03-02T11:33:41;3.20;;;1.07;;
16393;SDS011;8306;51.128;4.476;2024-03-02T11:36:08;2.60;;;0.90;;
16393;SDS011;8306;51.128;4.476;2024-03-02T11:38:34;2.23;;;1.00;;
16393;SDS011;8306;51.128;4.476;2024-03-02T11:41:01;2.03;;;0.80;;
16393;SDS011;8306;51.128;4.476;2024-03-02T11:43:29;3.23;;;1.10;;
16393;SDS011;8306;51.128;4.476;2024-03-02T11:45:56;2.33;;;1.00;;
16393;SDS011;8306;51.128;4.476;2024-03-02T11:48:22;1.60;;;0.90;;
16393;SDS011;8306;51.128;4.476;2024-03-02T11:50:50;1.40;;;0.80;;
16393;SDS011;8306;51.128;4.476;2024-03-02T11:53:15;2.03;;;0.80;;
16393;SDS011;8306;51.128;4.476;2024-03-02T11:55:42;2.13;;;1.03;;
16393;SDS011;8306;51.128;4.476;2024-03-02T11:58:11;2.10;;;1.07;;
16393;SDS011;8306;51.128;4.476;2024-03-02T12:00:38;3.70;;;1.10;;
16393;SDS011;8306;51.128;4.476;2024-03-02T12:03:05;3.13;;;1.20;;
16393;SDS011;8306;51.128;4.476;2024-03-02T12:05:31;2.37;;;0.90;;
16393;SDS011;8306;51.128;4.476;2024-03-02T12:07:57;4.43;;;0.97;;
16393;SDS011;8306;51.128;4.476;2024-03-02T12:10:26;2.30;;;1.10;;
16393;SDS011;8306;51.128;4.476;2024-03-02T12:13:03;1.83;;;0.90;;
16393;SDS011;8306;51.128;4.476;2024-03-02T12:15:25;2.43;;;1.10;;
16393;SDS011;8306;51.128;4.476;2024-03-02T12:17:55;3.33;;;1.03;;
16393;SDS011;8306;51.128;4.476;2024-03-02T12:20:21;2.07;;;0.77;;
16393;SDS011;8306;51.128;4.476;2024-03-02T12:22:47;2.63;;;1.00;;
16393;SDS011;8306;51.128;4.476;2024-03-02T12:25:14;2.03;;;1.00;;
16393;SDS011;8306;51.128;4.476;2024-03-02T12:27:40;2.00;;;0.90;;
16393;SDS011;8306;51.128;4.476;2024-03-02T12:30:07;2.73;;;0.93;;
16393;SDS011;8306;51.128;4.476;2024-03-02T12:32:34;3.07;;;1.10;;
16393;SDS011;8306;51.128;4.476;2024-03-02T12:35:00;1.90;;;0.80;;
16393;SDS011;8306;51.128;4.476;2024-03-02T12:37:26;4.10;;;1.20;;
16393;SDS011;8306;51.128;4.476;2024-03-02T12:39:53;2.23;;;1.10;;
16393;SDS011;8306;51.128;4.476;2024-03-02T12:42:19;3.03;;;1.20;;
16393;SDS011;8306;51.128;4.476;2024-03-02T12:44:46;2.10;;;0.90;;
16393;SDS011;8306;51.128;4.476;2024-03-02T12:47:12;2.53;;;0.90;;
16393;SDS011;8306;51.128;4.476;2024-03-02T12:49:39;2.77;;;0.83;;
16393;SDS011;8306;51.128;4.476;2024-03-02T12:52:08;2.50;;;1.00;;
16393;SDS011;8306;51.128;4.476;2024-03-02T12:54:34;2.10;;;0.80;;
16393;SDS011;8306;51.128;4.476;2024-03-02T12:57:01;2.37;;;0.93;;
16393;SDS011;8306;51.128;4.476;2024-03-02T12:59:27;2.90;;;1.00;;
16393;SDS011;8306;51.128;4.476;2024-03-02T13:01:54;2.83;;;0.93;;
16393;SDS011;8306;51.128;4.476;2024-03-02T13:04:27;4.27;;;1.13;;
16393;SDS011;8306;51.128;4.476;2024-03-02T13:06:52;2.50;;;0.90;;
16393;SDS011;8306;51.128;4.476;2024-03-02T13:09:19;2.07;;;0.60;;
16393;SDS011;8306;51.128;4.476;2024-03-02T13:11:45;1.80;;;0.80;;
16393;SDS011;8306;51.128;4.476;2024-03-02T13:14:12;1.80;;;0.90;;
16393;SDS011;8306;51.128;4.476;2024-03-02T13:16:39;3.07;;;0.80;;
16393;SDS011;8306;51.128;4.476;2024-03-02T13:19:07;3.23;;;0.80;;
16393;SDS011;8306;51.128;4.476;2024-03-02T13:21:34;2.20;;;0.90;;
16393;SDS011;8306;51.128;4.476;2024-03-02T13:24:00;1.90;;;0.93;;
16393;SDS011;8306;51.128;4.476;2024-03-02T13:26:27;2.23;;;0.97;;
16393;SDS011;8306;51.128;4.476;2024-03-02T13:28:53;3.23;;;0.80;;
16393;SDS011;8306;51.128;4.476;2024-03-02T13:31:20;1.73;;;0.70;;
16393;SDS011;8306;51.128;4.476;2024-03-02T13:33:46;1.60;;;0.80;;
16393;SDS011;8306;51.128;4.476;2024-03-02T13:36:13;1.33;;;0.70;;
16393;SDS011;8306;51.128;4.476;2024-03-02T13:38:39;1.30;;;0.60;;
16393;SDS011;8306;51.128;4.476;2024-03-02T13:41:06;2.37;;;1.03;;
16393;SDS011;8306;51.128;4.476;2024-03-02T13:43:32;2.70;;;0.90;;
16393;SDS011;8306;51.128;4.476;2024-03-02T13:45:59;1.73;;;0.90;;
16393;SDS011;8306;51.128;4.476;2024-03-02T13:48:25;2.03;;;0.87;;
16393;SDS011;8306;51.128;4.476;2024-03-02T13:50:52;2.03;;;0.77;;
16393;SDS011;8306;51.128;4.476;2024-03-02T13:53:18;2.77;;;1.03;;
16393;SDS011;8306;51.128;4.476;2024-03-02T13:55:45;2.03;;;0.83;;
16393;SDS011;8306;51.128;4.476;2024-03-02T13:58:11;2.23;;;1.00;;
16393;SDS011;8306;51.128;4.476;2024-03-02T14:00:38;1.80;;;0.80;;
16393;SDS011;8306;51.128;4.476;2024-03-02T14:03:05;1.33;;;0.80;;
16393;SDS011;8306;51.128;4.476;2024-03-02T14:05:31;1.13;;;0.70;;
16393;SDS011;8306;51.128;4.476;2024-03-02T14:07:57;2.07;;;0.77;;
16393;SDS011;8306;51.128;4.476;2024-03-02T14:10:24;3.87;;;0.90;;
16393;SDS011;8306;51.128;4.476;2024-03-02T14:12:50;2.47;;;0.90;;
16393;SDS011;8306;51.128;4.476;2024-03-02T14:15:16;2.20;;;0.70;;
16393;SDS011;8306;51.128;4.476;2024-03-02T14:17:43;1.20;;;0.50;;
16393;SDS011;8306;51.128;4.476;2024-03-02T14:20:09;1.57;;;0.93;;
16393;SDS011;8306;51.128;4.476;2024-03-02T14:22:36;2.07;;;0.87;;
16393;SDS011;8306;51.128;4.476;2024-03-02T14:25:03;2.37;;;0.90;;
16393;SDS011;8306;51.128;4.476;2024-03-02T14:27:29;1.43;;;0.80;;
16393;SDS011;8306;51.128;4.476;2024-03-02T14:29:55;1.67;;;0.73;;
16393;SDS011;8306;51.128;4.476;2024-03-02T14:32:22;2.90;;;1.03;;
16393;SDS011;8306;51.128;4.476;2024-03-02T14:34:48;2.03;;;0.83;;
16393;SDS011;8306;51.128;4.476;2024-03-02T14:37:15;2.57;;;0.87;;
16393;SDS011;8306;51.128;4.476;2024-03-02T14:39:41;2.77;;;1.30;;
16393;SDS011;8306;51.128;4.476;2024-03-02T14:42:08;1.80;;;0.80;;
16393;SDS011;8306;51.128;4.476;2024-03-02T14:44:34;2.10;;;1.03;;
16393;SDS011;8306;51.128;4.476;2024-03-02T14:47:01;1.33;;;0.60;;
16393;SDS011;8306;51.128;4.476;2024-03-02T14:49:27;2.93;;;1.20;;
16393;SDS011;8306;51.128;4.476;2024-03-02T14:51:54;2.37;;;1.33;;
16393;SDS011;8306;51.128;4.476;2024-03-02T14:54:20;5.03;;;2.47;;
16393;SDS011;8306;51.128;4.476;2024-03-02T14:56:47;4.70;;;2.10;;
16393;SDS011;8306;51.128;4.476;2024-03-02T14:59:13;4.57;;;2.63;;
16393;SDS011;8306;51.128;4.476;2024-03-02T15:01:40;3.60;;;1.80;;